sensor_id;sensor_type;location;lat;lon;timestamp;temperature;humidity
21393;DHT22;10857;52.228;21.026;2024-02-21T00:01:38;5.30;99.90
21393;DHT22;10857;52.228;21.026;2024-02-21T00:04:05;5.40;99.90
21393;DHT22;10857;52.228;21.026;2024-02-21T00:06:32;5.30;99.90
21393;DHT22;10857;52.228;21.026;2024-02-21T00:08:59;5.40;99.90
21393;DHT22;10857;52.228;21.026;2024-02-21T00:11:27;5.30;99.90
21393;DHT22;10857;52.228;21.026;2024-02-21T00:13:55;5.40;99.90
21393;DHT22;10857;52.228;21.026;2024-02-21T00:16:22;5.50;99.90
21393;DHT22;10857;52.228;21.026;2024-02-21T00:18:49;5.40;99.90
21393;DHT22;10857;52.228;21.026;2024-02-21T00:21:16;5.50;99.90
21393;DHT22;10857;52.228;21.026;2024-02-21T00:23:45;5.50;99.90
21393;DHT22;10857;52.228;21.026;2024-02-21T00:26:17;5.60;99.90
21393;DHT22;10857;52.228;21.026;2024-02-21T00:28:44;5.50;99.90
21393;DHT22;10857;52.228;21.026;2024-02-21T00:31:12;5.50;99.90
21393;DHT22;10857;52.228;21.026;2024-02-21T00:33:39;5.60;99.90
21393;DHT22;10857;52.228;21.026;2024-02-21T00:36:06;5.40;99.90
21393;DHT22;10857;52.228;21.026;2024-02-21T00:38:33;5.50;99.90
21393;DHT22;10857;52.228;21.026;2024-02-21T00:41:00;5.50;99.90
21393;DHT22;10857;52.228;21.026;2024-02-21T00:43:27;5.60;99.90
21393;DHT22;10857;52.228;21.026;2024-02-21T00:45:54;5.60;99.90
21393;DHT22;10857;52.228;21.026;2024-02-21T00:48:21;5.50;99.90
21393;DHT22;10857;52.228;21.026;2024-02-21T00:50:49;5.50;99.90
21393;DHT22;10857;52.228;21.026;2024-02-21T00:53:16;5.50;99.90
21393;DHT22;10857;52.228;21.026;2024-02-21T00:55:43;5.50;99.90
21393;DHT22;10857;52.228;21.026;2024-02-21T00:58:10;5.50;99.90
21393;DHT22;10857;52.228;21.026;2024-02-21T01:00:37;5.50;99.90
21393;DHT22;10857;52.228;21.026;2024-02-21T01:03:04;5.50;99.90
21393;DHT22;10857;52.228;21.026;2024-02-21T01:05:32;5.50;99.90
21393;DHT22;10857;52.228;21.026;2024-02-21T01:07:59;5.50;99.90
21393;DHT22;10857;52.228;21.026;2024-02-21T01:10:26;5.40;99.90
21393;DHT22;10857;52.228;21.026;2024-02-21T01:12:53;5.40;99.90
21393;DHT22;10857;52.228;21.026;2024-02-21T01:19:48;5.50;99.90
21393;DHT22;10857;52.228;21.026;2024-02-21T01:22:15;5.50;99.90
21393;DHT22;10857;52.228;21.026;2024-02-21T01:24:43;5.50;99.90
21393;DHT22;10857;52.228;21.026;2024-02-21T01:27:10;5.50;99.90
21393;DHT22;10857;52.228;21.026;2024-02-21T01:29:37;5.50;99.90
21393;DHT22;10857;52.228;21.026;2024-02-21T01:32:04;5.50;99.90
21393;DHT22;10857;52.228;21.026;2024-02-21T01:34:32;5.60;99.90
21393;DHT22;10857;52.228;21.026;2024-02-21T01:36:59;5.50;99.90
21393;DHT22;10857;52.228;21.026;2024-02-21T01:39:26;5.50;99.90
21393;DHT22;10857;52.228;21.026;2024-02-21T01:41:53;5.40;99.90
21393;DHT22;10857;52.228;21.026;2024-02-21T01:44:20;5.30;99.90
21393;DHT22;10857;52.228;21.026;2024-02-21T01:46:47;5.40;99.90
21393;DHT22;10857;52.228;21.026;2024-02-21T01:49:15;5.40;99.90
21393;DHT22;10857;52.228;21.026;2024-02-21T01:51:42;5.40;99.90
21393;DHT22;10857;52.228;21.026;2024-02-21T01:54:10;5.40;99.90
21393;DHT22;10857;52.228;21.026;2024-02-21T01:56:38;5.40;99.90
21393;DHT22;10857;52.228;21.026;2024-02-21T01:59:06;5.30;99.90
21393;DHT22;10857;52.228;21.026;2024-02-21T02:01:33;5.40;99.90
21393;DHT22;10857;52.228;21.026;2024-02-21T02:04:01;5.40;99.90
21393;DHT22;10857;52.228;21.026;2024-02-21T02:06:32;5.30;99.90
21393;DHT22;10857;52.228;21.026;2024-02-21T02:08:59;5.40;99.90
21393;DHT22;10857;52.228;21.026;2024-02-21T02:11:26;5.50;99.90
21393;DHT22;10857;52.228;21.026;2024-02-21T02:13:53;5.50;99.90
21393;DHT22;10857;52.228;21.026;2024-02-21T02:16:21;5.50;99.90
21393;DHT22;10857;52.228;21.026;2024-02-21T02:18:48;5.50;99.90
21393;DHT22;10857;52.228;21.026;2024-02-21T02:21:25;5.50;99.90
21393;DHT22;10857;52.228;21.026;2024-02-21T02:23:54;5.50;99.90
21393;DHT22;10857;52.228;21.026;2024-02-21T02:26:21;5.40;99.90
21393;DHT22;10857;52.228;21.026;2024-02-21T02:28:48;5.40;99.90
21393;DHT22;10857;52.228;21.026;2024-02-21T02:31:15;5.40;99.90
21393;DHT22;10857;52.228;21.026;2024-02-21T02:33:45;5.50;99.90
21393;DHT22;10857;52.228;21.026;2024-02-21T02:36:12;5.60;99.90
21393;DHT22;10857;52.228;21.026;2024-02-21T02:38:39;5.60;99.90
21393;DHT22;10857;52.228;21.026;2024-02-21T02:41:07;5.60;99.90
21393;DHT22;10857;52.228;21.026;2024-02-21T02:43:34;5.70;99.90
21393;DHT22;10857;52.228;21.026;2024-02-21T02:46:01;5.50;99.90
21393;DHT22;10857;52.228;21.026;2024-02-21T02:48:28;5.60;99.90
21393;DHT22;10857;52.228;21.026;2024-02-21T02:50:55;5.50;99.90
21393;DHT22;10857;52.228;21.026;2024-02-21T02:53:22;5.50;99.90
21393;DHT22;10857;52.228;21.026;2024-02-21T02:55:49;5.50;99.90
21393;DHT22;10857;52.228;21.026;2024-02-21T02:58:16;5.50;99.90
21393;DHT22;10857;52.228;21.026;2024-02-21T03:00:43;5.60;99.90
21393;DHT22;10857;52.228;21.026;2024-02-21T03:03:11;5.50;99.90
21393;DHT22;10857;52.228;21.026;2024-02-21T03:05:38;5.60;99.90
21393;DHT22;10857;52.228;21.026;2024-02-21T03:08:05;5.60;99.90
21393;DHT22;10857;52.228;21.026;2024-02-21T03:10:34;5.70;99.90
21393;DHT22;10857;52.228;21.026;2024-02-21T03:13:01;5.70;99.90
21393;DHT22;10857;52.228;21.026;2024-02-21T03:15:28;5.60;99.90
21393;DHT22;10857;52.228;21.026;2024-02-21T03:17:55;5.60;99.90
21393;DHT22;10857;52.228;21.026;2024-02-21T03:20:22;5.60;99.90
21393;DHT22;10857;52.228;21.026;2024-02-21T03:22:50;5.60;99.90
21393;DHT22;10857;52.228;21.026;2024-02-21T03:25:17;5.60;99.90
21393;DHT22;10857;52.228;21.026;2024-02-21T03:27:44;5.70;99.90
21393;DHT22;10857;52.228;21.026;2024-02-21T03:30:11;5.70;99.90
21393;DHT22;10857;52.228;21.026;2024-02-21T03:32:39;5.70;99.90
21393;DHT22;10857;52.228;21.026;2024-02-21T03:35:06;5.60;99.90
21393;DHT22;10857;52.228;21.026;2024-02-21T03:37:34;5.70;99.90
21393;DHT22;10857;52.228;21.026;2024-02-21T03:40:01;5.60;99.90
21393;DHT22;10857;52.228;21.026;2024-02-21T03:42:29;5.60;99.90
21393;DHT22;10857;52.228;21.026;2024-02-21T03:44:58;5.60;99.90
21393;DHT22;10857;52.228;21.026;2024-02-21T03:47:25;5.60;99.90
21393;DHT22;10857;52.228;21.026;2024-02-21T03:49:52;5.70;99.90
21393;DHT22;10857;52.228;21.026;2024-02-21T03:52:20;5.70;99.90
21393;DHT22;10857;52.228;21.026;2024-02-21T03:54:47;5.70;99.90
21393;DHT22;10857;52.228;21.026;2024-02-21T03:57:14;5.70;99.90
21393;DHT22;10857;52.228;21.026;2024-02-21T03:59:41;5.60;99.90
21393;DHT22;10857;52.228;21.026;2024-02-21T04:02:10;5.60;99.90
21393;DHT22;10857;52.228;21.026;2024-02-21T04:04:38;5.70;99.90
21393;DHT22;10857;52.228;21.026;2024-02-21T04:07:05;5.70;99.90
21393;DHT22;10857;52.228;21.026;2024-02-21T04:09:35;5.70;99.90
21393;DHT22;10857;52.228;21.026;2024-02-21T04:12:03;5.80;99.90
21393;DHT22;10857;52.228;21.026;2024-02-21T04:14:30;5.80;99.90
21393;DHT22;10857;52.228;21.026;2024-02-21T04:16:57;5.80;99.90
21393;DHT22;10857;52.228;21.026;2024-02-21T04:19:24;5.80;99.90
21393;DHT22;10857;52.228;21.026;2024-02-21T04:21:52;5.80;99.90
21393;DHT22;10857;52.228;21.026;2024-02-21T04:24:19;5.80;99.90
21393;DHT22;10857;52.228;21.026;2024-02-21T04:26:46;5.80;99.90
21393;DHT22;10857;52.228;21.026;2024-02-21T04:29:13;5.80;99.90
21393;DHT22;10857;52.228;21.026;2024-02-21T04:31:40;5.80;99.90
21393;DHT22;10857;52.228;21.026;2024-02-21T04:34:07;5.80;99.90
21393;DHT22;10857;52.228;21.026;2024-02-21T04:36:34;5.80;99.90
21393;DHT22;10857;52.228;21.026;2024-02-21T04:39:01;5.70;99.90
21393;DHT22;10857;52.228;21.026;2024-02-21T04:41:28;5.80;99.90
21393;DHT22;10857;52.228;21.026;2024-02-21T04:43:55;5.80;99.90
21393;DHT22;10857;52.228;21.026;2024-02-21T04:46:23;5.90;99.90
21393;DHT22;10857;52.228;21.026;2024-02-21T04:48:50;5.90;99.90
21393;DHT22;10857;52.228;21.026;2024-02-21T04:51:17;5.80;99.90
21393;DHT22;10857;52.228;21.026;2024-02-21T04:53:44;5.80;99.90
21393;DHT22;10857;52.228;21.026;2024-02-21T04:56:11;5.90;99.90
21393;DHT22;10857;52.228;21.026;2024-02-21T04:58:39;5.80;99.90
21393;DHT22;10857;52.228;21.026;2024-02-21T05:01:06;5.90;99.90
21393;DHT22;10857;52.228;21.026;2024-02-21T05:03:34;5.90;99.90
21393;DHT22;10857;52.228;21.026;2024-02-21T05:06:01;5.90;99.90
21393;DHT22;10857;52.228;21.026;2024-02-21T05:08:29;5.90;99.90
21393;DHT22;10857;52.228;21.026;2024-02-21T05:10:56;5.80;99.90
21393;DHT22;10857;52.228;21.026;2024-02-21T05:13:23;5.90;99.90
21393;DHT22;10857;52.228;21.026;2024-02-21T05:15:50;5.80;99.90
21393;DHT22;10857;52.228;21.026;2024-02-21T05:18:17;5.90;99.90
21393;DHT22;10857;52.228;21.026;2024-02-21T05:20:44;5.90;99.90
21393;DHT22;10857;52.228;21.026;2024-02-21T05:23:12;6.00;99.90
21393;DHT22;10857;52.228;21.026;2024-02-21T05:25:39;6.00;99.90
21393;DHT22;10857;52.228;21.026;2024-02-21T05:28:06;6.10;99.90
21393;DHT22;10857;52.228;21.026;2024-02-21T05:30:33;6.10;99.90
21393;DHT22;10857;52.228;21.026;2024-02-21T05:33:04;6.00;99.90
21393;DHT22;10857;52.228;21.026;2024-02-21T05:35:32;6.10;99.90
21393;DHT22;10857;52.228;21.026;2024-02-21T05:37:59;6.00;99.90
21393;DHT22;10857;52.228;21.026;2024-02-21T05:40:27;6.00;99.90
21393;DHT22;10857;52.228;21.026;2024-02-21T05:42:54;6.00;99.90
21393;DHT22;10857;52.228;21.026;2024-02-21T05:45:21;6.10;99.90
21393;DHT22;10857;52.228;21.026;2024-02-21T05:47:48;6.10;99.90
21393;DHT22;10857;52.228;21.026;2024-02-21T05:50:15;6.10;99.90
21393;DHT22;10857;52.228;21.026;2024-02-21T05:52:42;6.10;99.90
21393;DHT22;10857;52.228;21.026;2024-02-21T05:55:10;6.10;99.90
21393;DHT22;10857;52.228;21.026;2024-02-21T05:57:37;6.10;99.90
21393;DHT22;10857;52.228;21.026;2024-02-21T06:00:06;6.10;99.90
21393;DHT22;10857;52.228;21.026;2024-02-21T06:02:38;6.20;99.90
21393;DHT22;10857;52.228;21.026;2024-02-21T06:05:05;6.20;99.90
21393;DHT22;10857;52.228;21.026;2024-02-21T06:07:35;6.20;99.90
21393;DHT22;10857;52.228;21.026;2024-02-21T06:10:02;6.10;99.90
21393;DHT22;10857;52.228;21.026;2024-02-21T06:12:29;6.10;99.90
21393;DHT22;10857;52.228;21.026;2024-02-21T06:14:57;6.20;99.90
21393;DHT22;10857;52.228;21.026;2024-02-21T06:17:24;6.10;99.90
21393;DHT22;10857;52.228;21.026;2024-02-21T06:19:51;6.10;99.90
21393;DHT22;10857;52.228;21.026;2024-02-21T06:22:18;6.20;99.90
21393;DHT22;10857;52.228;21.026;2024-02-21T06:24:45;6.20;99.90
21393;DHT22;10857;52.228;21.026;2024-02-21T06:27:12;6.20;99.90
21393;DHT22;10857;52.228;21.026;2024-02-21T06:29:42;6.30;99.90
21393;DHT22;10857;52.228;21.026;2024-02-21T06:32:09;6.30;99.90
21393;DHT22;10857;52.228;21.026;2024-02-21T06:34:36;6.30;99.90
21393;DHT22;10857;52.228;21.026;2024-02-21T06:37:04;6.30;99.90
21393;DHT22;10857;52.228;21.026;2024-02-21T06:39:31;6.30;99.90
21393;DHT22;10857;52.228;21.026;2024-02-21T06:41:58;6.30;99.90
21393;DHT22;10857;52.228;21.026;2024-02-21T06:44:29;6.40;99.90
21393;DHT22;10857;52.228;21.026;2024-02-21T06:46:56;6.30;99.90
21393;DHT22;10857;52.228;21.026;2024-02-21T06:49:25;6.30;99.90
21393;DHT22;10857;52.228;21.026;2024-02-21T06:51:53;6.30;99.90
21393;DHT22;10857;52.228;21.026;2024-02-21T06:54:20;6.30;99.90
21393;DHT22;10857;52.228;21.026;2024-02-21T06:56:47;6.30;99.90
21393;DHT22;10857;52.228;21.026;2024-02-21T06:59:14;6.30;99.90
21393;DHT22;10857;52.228;21.026;2024-02-21T07:01:48;6.30;99.90
21393;DHT22;10857;52.228;21.026;2024-02-21T07:04:15;6.40;99.90
21393;DHT22;10857;52.228;21.026;2024-02-21T07:06:43;6.40;99.90
21393;DHT22;10857;52.228;21.026;2024-02-21T07:09:10;6.40;99.90
21393;DHT22;10857;52.228;21.026;2024-02-21T07:11:37;6.40;99.90
21393;DHT22;10857;52.228;21.026;2024-02-21T07:14:04;6.40;99.90
21393;DHT22;10857;52.228;21.026;2024-02-21T07:16:32;6.40;99.90
21393;DHT22;10857;52.228;21.026;2024-02-21T07:19:00;6.50;99.90
21393;DHT22;10857;52.228;21.026;2024-02-21T07:21:27;6.50;99.90
21393;DHT22;10857;52.228;21.026;2024-02-21T07:23:55;6.40;99.90
21393;DHT22;10857;52.228;21.026;2024-02-21T07:26:22;6.40;99.90
21393;DHT22;10857;52.228;21.026;2024-02-21T07:28:49;6.50;99.90
21393;DHT22;10857;52.228;21.026;2024-02-21T07:31:16;6.50;99.90
21393;DHT22;10857;52.228;21.026;2024-02-21T07:33:44;6.50;99.90
21393;DHT22;10857;52.228;21.026;2024-02-21T07:36:11;6.60;99.90
21393;DHT22;10857;52.228;21.026;2024-02-21T07:38:39;6.60;99.90
21393;DHT22;10857;52.228;21.026;2024-02-21T07:41:06;6.60;99.90
21393;DHT22;10857;52.228;21.026;2024-02-21T07:43:33;6.60;99.90
21393;DHT22;10857;52.228;21.026;2024-02-21T07:46:00;6.60;99.90
21393;DHT22;10857;52.228;21.026;2024-02-21T07:48:28;6.60;99.90
21393;DHT22;10857;52.228;21.026;2024-02-21T07:50:58;6.70;99.90
21393;DHT22;10857;52.228;21.026;2024-02-21T07:53:25;6.80;99.90
21393;DHT22;10857;52.228;21.026;2024-02-21T07:55:52;6.80;99.90
21393;DHT22;10857;52.228;21.026;2024-02-21T07:58:19;6.80;99.90
21393;DHT22;10857;52.228;21.026;2024-02-21T08:00:46;6.80;99.90
21393;DHT22;10857;52.228;21.026;2024-02-21T08:03:14;6.90;99.90
21393;DHT22;10857;52.228;21.026;2024-02-21T08:05:42;7.00;99.90
21393;DHT22;10857;52.228;21.026;2024-02-21T08:08:09;7.00;99.90
21393;DHT22;10857;52.228;21.026;2024-02-21T08:10:36;7.10;99.90
21393;DHT22;10857;52.228;21.026;2024-02-21T08:13:03;7.10;99.90
21393;DHT22;10857;52.228;21.026;2024-02-21T08:15:30;7.10;99.90
21393;DHT22;10857;52.228;21.026;2024-02-21T08:17:58;7.00;99.90
21393;DHT22;10857;52.228;21.026;2024-02-21T08:20:28;7.10;99.90
21393;DHT22;10857;52.228;21.026;2024-02-21T08:22:55;7.20;99.90
21393;DHT22;10857;52.228;21.026;2024-02-21T08:25:22;7.20;99.90
21393;DHT22;10857;52.228;21.026;2024-02-21T08:27:50;7.20;99.90
21393;DHT22;10857;52.228;21.026;2024-02-21T08:30:18;7.20;99.90
21393;DHT22;10857;52.228;21.026;2024-02-21T08:32:46;7.30;99.90
21393;DHT22;10857;52.228;21.026;2024-02-21T08:35:13;7.40;99.90
21393;DHT22;10857;52.228;21.026;2024-02-21T08:37:40;7.30;99.90
21393;DHT22;10857;52.228;21.026;2024-02-21T08:40:08;7.30;99.90
21393;DHT22;10857;52.228;21.026;2024-02-21T08:42:38;7.30;99.90
21393;DHT22;10857;52.228;21.026;2024-02-21T08:45:06;7.40;99.90
21393;DHT22;10857;52.228;21.026;2024-02-21T08:47:33;7.30;99.90
21393;DHT22;10857;52.228;21.026;2024-02-21T08:50:01;7.30;99.90
21393;DHT22;10857;52.228;21.026;2024-02-21T08:52:44;7.30;99.90
21393;DHT22;10857;52.228;21.026;2024-02-21T08:55:11;7.40;99.90
21393;DHT22;10857;52.228;21.026;2024-02-21T08:57:38;7.40;99.90
21393;DHT22;10857;52.228;21.026;2024-02-21T09:00:06;7.40;99.90
21393;DHT22;10857;52.228;21.026;2024-02-21T09:02:41;7.50;99.90
21393;DHT22;10857;52.228;21.026;2024-02-21T09:05:11;7.60;99.90
21393;DHT22;10857;52.228;21.026;2024-02-21T09:07:39;7.60;99.90
21393;DHT22;10857;52.228;21.026;2024-02-21T09:10:06;7.70;99.90
21393;DHT22;10857;52.228;21.026;2024-02-21T09:12:34;7.70;99.90
21393;DHT22;10857;52.228;21.026;2024-02-21T09:15:01;7.70;99.90
21393;DHT22;10857;52.228;21.026;2024-02-21T09:17:28;7.80;99.90
21393;DHT22;10857;52.228;21.026;2024-02-21T09:19:57;7.70;99.90
21393;DHT22;10857;52.228;21.026;2024-02-21T09:22:27;7.80;99.90
21393;DHT22;10857;52.228;21.026;2024-02-21T09:24:55;7.80;99.90
21393;DHT22;10857;52.228;21.026;2024-02-21T09:27:23;7.90;99.90
21393;DHT22;10857;52.228;21.026;2024-02-21T09:29:50;7.90;99.90
21393;DHT22;10857;52.228;21.026;2024-02-21T09:32:18;8.00;99.90
21393;DHT22;10857;52.228;21.026;2024-02-21T09:34:46;8.00;99.90
21393;DHT22;10857;52.228;21.026;2024-02-21T09:37:13;8.00;99.90
21393;DHT22;10857;52.228;21.026;2024-02-21T09:39:40;7.90;99.90
21393;DHT22;10857;52.228;21.026;2024-02-21T09:42:11;7.80;99.90
21393;DHT22;10857;52.228;21.026;2024-02-21T09:44:38;7.80;99.90
21393;DHT22;10857;52.228;21.026;2024-02-21T09:49:40;7.80;99.90
21393;DHT22;10857;52.228;21.026;2024-02-21T09:52:09;7.80;99.90
21393;DHT22;10857;52.228;21.026;2024-02-21T09:54:39;7.80;99.90
21393;DHT22;10857;52.228;21.026;2024-02-21T09:57:08;7.80;99.90
21393;DHT22;10857;52.228;21.026;2024-02-21T09:59:35;7.90;99.90
21393;DHT22;10857;52.228;21.026;2024-02-21T10:02:02;7.90;99.90
21393;DHT22;10857;52.228;21.026;2024-02-21T10:04:30;8.00;99.90
21393;DHT22;10857;52.228;21.026;2024-02-21T10:06:58;8.00;99.90
21393;DHT22;10857;52.228;21.026;2024-02-21T10:09:27;8.00;99.90
21393;DHT22;10857;52.228;21.026;2024-02-21T10:12:21;8.00;99.90
21393;DHT22;10857;52.228;21.026;2024-02-21T10:14:48;8.00;99.90
21393;DHT22;10857;52.228;21.026;2024-02-21T10:17:17;8.10;99.90
21393;DHT22;10857;52.228;21.026;2024-02-21T10:19:45;8.10;99.90
21393;DHT22;10857;52.228;21.026;2024-02-21T10:22:15;8.10;99.90
21393;DHT22;10857;52.228;21.026;2024-02-21T10:24:43;8.20;99.90
21393;DHT22;10857;52.228;21.026;2024-02-21T10:27:10;8.10;99.90
21393;DHT22;10857;52.228;21.026;2024-02-21T10:29:40;8.20;99.90
21393;DHT22;10857;52.228;21.026;2024-02-21T10:32:08;8.30;99.90
21393;DHT22;10857;52.228;21.026;2024-02-21T10:34:37;8.30;99.90
21393;DHT22;10857;52.228;21.026;2024-02-21T10:37:09;8.40;99.90
21393;DHT22;10857;52.228;21.026;2024-02-21T10:39:38;8.30;99.90
21393;DHT22;10857;52.228;21.026;2024-02-21T10:42:06;8.40;99.90
21393;DHT22;10857;52.228;21.026;2024-02-21T10:44:39;8.40;99.90
21393;DHT22;10857;52.228;21.026;2024-02-21T10:47:08;8.40;99.90
21393;DHT22;10857;52.228;21.026;2024-02-21T10:49:41;8.40;99.90
21393;DHT22;10857;52.228;21.026;2024-02-21T10:52:13;8.40;99.90
21393;DHT22;10857;52.228;21.026;2024-02-21T10:54:49;8.40;99.90
21393;DHT22;10857;52.228;21.026;2024-02-21T10:57:18;8.50;99.90
21393;DHT22;10857;52.228;21.026;2024-02-21T10:59:48;8.50;99.90
21393;DHT22;10857;52.228;21.026;2024-02-21T11:02:16;8.50;99.90
21393;DHT22;10857;52.228;21.026;2024-02-21T11:04:44;8.60;99.90
21393;DHT22;10857;52.228;21.026;2024-02-21T11:07:12;8.60;99.90
21393;DHT22;10857;52.228;21.026;2024-02-21T11:09:40;8.60;99.90
21393;DHT22;10857;52.228;21.026;2024-02-21T11:12:07;8.60;99.90
21393;DHT22;10857;52.228;21.026;2024-02-21T11:14:38;8.50;99.90
21393;DHT22;10857;52.228;21.026;2024-02-21T11:17:20;8.60;99.90
21393;DHT22;10857;52.228;21.026;2024-02-21T11:19:54;8.40;99.90
21393;DHT22;10857;52.228;21.026;2024-02-21T11:22:21;8.50;99.90
21393;DHT22;10857;52.228;21.026;2024-02-21T11:24:52;8.50;99.90
21393;DHT22;10857;52.228;21.026;2024-02-21T11:27:21;8.50;99.90
21393;DHT22;10857;52.228;21.026;2024-02-21T11:29:58;8.60;99.90
21393;DHT22;10857;52.228;21.026;2024-02-21T11:32:26;8.50;99.90
21393;DHT22;10857;52.228;21.026;2024-02-21T11:35:01;8.40;99.90
21393;DHT22;10857;52.228;21.026;2024-02-21T11:37:32;8.40;99.90
21393;DHT22;10857;52.228;21.026;2024-02-21T11:40:01;8.40;99.90
21393;DHT22;10857;52.228;21.026;2024-02-21T11:42:30;8.40;99.90
21393;DHT22;10857;52.228;21.026;2024-02-21T11:44:59;8.40;99.90
21393;DHT22;10857;52.228;21.026;2024-02-21T11:47:28;8.40;99.90
21393;DHT22;10857;52.228;21.026;2024-02-21T11:49:55;8.40;99.90
21393;DHT22;10857;52.228;21.026;2024-02-21T11:52:26;8.30;99.90
21393;DHT22;10857;52.228;21.026;2024-02-21T11:54:55;8.30;99.90
21393;DHT22;10857;52.228;21.026;2024-02-21T11:57:24;8.20;99.90
21393;DHT22;10857;52.228;21.026;2024-02-21T11:59:52;8.30;99.90
21393;DHT22;10857;52.228;21.026;2024-02-21T12:02:26;8.20;99.90
21393;DHT22;10857;52.228;21.026;2024-02-21T12:04:54;8.20;99.90
21393;DHT22;10857;52.228;21.026;2024-02-21T12:07:22;8.10;99.90
21393;DHT22;10857;52.228;21.026;2024-02-21T12:09:51;8.10;99.90
21393;DHT22;10857;52.228;21.026;2024-02-21T12:12:20;8.20;99.90
21393;DHT22;10857;52.228;21.026;2024-02-21T12:14:55;8.20;99.90
21393;DHT22;10857;52.228;21.026;2024-02-21T12:17:22;8.20;99.90
21393;DHT22;10857;52.228;21.026;2024-02-21T12:19:51;8.20;99.90
21393;DHT22;10857;52.228;21.026;2024-02-21T12:22:18;8.20;99.90
21393;DHT22;10857;52.228;21.026;2024-02-21T12:24:46;8.20;99.90
21393;DHT22;10857;52.228;21.026;2024-02-21T12:27:15;8.20;99.90
21393;DHT22;10857;52.228;21.026;2024-02-21T12:29:42;8.20;99.90
21393;DHT22;10857;52.228;21.026;2024-02-21T12:32:10;8.20;99.90
21393;DHT22;10857;52.228;21.026;2024-02-21T12:34:37;8.20;99.90
21393;DHT22;10857;52.228;21.026;2024-02-21T12:37:19;8.20;99.90
21393;DHT22;10857;52.228;21.026;2024-02-21T12:39:48;8.20;99.90
21393;DHT22;10857;52.228;21.026;2024-02-21T12:42:15;8.20;99.90
21393;DHT22;10857;52.228;21.026;2024-02-21T12:44:42;8.20;99.90
21393;DHT22;10857;52.228;21.026;2024-02-21T12:47:10;8.20;99.90
21393;DHT22;10857;52.228;21.026;2024-02-21T12:49:37;8.20;99.90
21393;DHT22;10857;52.228;21.026;2024-02-21T12:52:10;8.20;99.90
21393;DHT22;10857;52.228;21.026;2024-02-21T12:54:38;8.20;99.90
21393;DHT22;10857;52.228;21.026;2024-02-21T12:57:05;8.20;99.90
21393;DHT22;10857;52.228;21.026;2024-02-21T12:59:32;8.20;99.90
21393;DHT22;10857;52.228;21.026;2024-02-21T13:01:59;8.20;99.90
21393;DHT22;10857;52.228;21.026;2024-02-21T13:04:27;8.10;99.90
21393;DHT22;10857;52.228;21.026;2024-02-21T13:06:55;8.10;99.90
21393;DHT22;10857;52.228;21.026;2024-02-21T13:09:24;8.10;99.90
21393;DHT22;10857;52.228;21.026;2024-02-21T13:11:52;8.20;99.90
21393;DHT22;10857;52.228;21.026;2024-02-21T13:14:19;8.10;99.90
21393;DHT22;10857;52.228;21.026;2024-02-21T13:16:47;8.10;99.90
21393;DHT22;10857;52.228;21.026;2024-02-21T13:19:15;8.10;99.90
21393;DHT22;10857;52.228;21.026;2024-02-21T13:21:45;8.10;99.90
21393;DHT22;10857;52.228;21.026;2024-02-21T13:24:12;8.20;99.90
21393;DHT22;10857;52.228;21.026;2024-02-21T13:26:39;8.20;99.90
21393;DHT22;10857;52.228;21.026;2024-02-21T13:29:06;8.10;99.90
21393;DHT22;10857;52.228;21.026;2024-02-21T13:31:34;8.20;99.90
21393;DHT22;10857;52.228;21.026;2024-02-21T13:34:01;8.20;99.90
21393;DHT22;10857;52.228;21.026;2024-02-21T13:36:28;8.20;99.90
21393;DHT22;10857;52.228;21.026;2024-02-21T13:38:56;8.20;99.90
21393;DHT22;10857;52.228;21.026;2024-02-21T13:41:23;8.10;99.90
21393;DHT22;10857;52.228;21.026;2024-02-21T13:43:50;8.10;99.90
21393;DHT22;10857;52.228;21.026;2024-02-21T13:46:17;8.10;99.90
21393;DHT22;10857;52.228;21.026;2024-02-21T13:48:45;8.10;99.90
21393;DHT22;10857;52.228;21.026;2024-02-21T13:51:12;8.10;99.90
21393;DHT22;10857;52.228;21.026;2024-02-21T13:53:39;8.10;99.90
21393;DHT22;10857;52.228;21.026;2024-02-21T13:56:06;8.10;99.90
21393;DHT22;10857;52.228;21.026;2024-02-21T13:58:33;8.10;99.90
21393;DHT22;10857;52.228;21.026;2024-02-21T14:01:00;8.10;99.90
21393;DHT22;10857;52.228;21.026;2024-02-21T14:03:28;8.10;99.90
21393;DHT22;10857;52.228;21.026;2024-02-21T14:05:55;8.20;99.90
21393;DHT22;10857;52.228;21.026;2024-02-21T14:08:22;8.20;99.90
21393;DHT22;10857;52.228;21.026;2024-02-21T14:10:51;8.20;99.90
21393;DHT22;10857;52.228;21.026;2024-02-21T14:13:18;8.20;99.90
21393;DHT22;10857;52.228;21.026;2024-02-21T14:15:45;8.20;99.90
21393;DHT22;10857;52.228;21.026;2024-02-21T14:18:13;8.20;99.90
21393;DHT22;10857;52.228;21.026;2024-02-21T14:20:41;8.20;99.90
21393;DHT22;10857;52.228;21.026;2024-02-21T14:23:08;8.20;99.90
21393;DHT22;10857;52.228;21.026;2024-02-21T14:25:35;8.20;99.90
21393;DHT22;10857;52.228;21.026;2024-02-21T14:28:02;8.20;99.90
21393;DHT22;10857;52.228;21.026;2024-02-21T14:30:30;8.20;99.90
21393;DHT22;10857;52.228;21.026;2024-02-21T14:32:57;8.30;99.90
21393;DHT22;10857;52.228;21.026;2024-02-21T14:35:24;8.30;99.90
21393;DHT22;10857;52.228;21.026;2024-02-21T14:37:52;8.30;99.90
21393;DHT22;10857;52.228;21.026;2024-02-21T14:40:24;8.20;99.90
21393;DHT22;10857;52.228;21.026;2024-02-21T14:42:51;8.20;99.90
21393;DHT22;10857;52.228;21.026;2024-02-21T14:45:19;8.20;99.90
21393;DHT22;10857;52.228;21.026;2024-02-21T14:47:46;8.20;99.90
21393;DHT22;10857;52.228;21.026;2024-02-21T14:50:13;8.20;99.90
21393;DHT22;10857;52.228;21.026;2024-02-21T14:52:41;8.20;99.90
21393;DHT22;10857;52.228;21.026;2024-02-21T14:55:08;8.20;99.90
21393;DHT22;10857;52.228;21.026;2024-02-21T14:57:36;8.20;99.90
21393;DHT22;10857;52.228;21.026;2024-02-21T15:00:05;8.20;99.90
21393;DHT22;10857;52.228;21.026;2024-02-21T15:02:35;8.10;99.90
21393;DHT22;10857;52.228;21.026;2024-02-21T15:05:02;8.10;99.90
21393;DHT22;10857;52.228;21.026;2024-02-21T15:07:31;8.10;99.90
21393;DHT22;10857;52.228;21.026;2024-02-21T15:09:58;8.10;99.90
21393;DHT22;10857;52.228;21.026;2024-02-21T15:12:26;8.10;99.90
21393;DHT22;10857;52.228;21.026;2024-02-21T15:14:53;8.10;99.90
21393;DHT22;10857;52.228;21.026;2024-02-21T15:17:20;8.10;99.90
21393;DHT22;10857;52.228;21.026;2024-02-21T15:19:47;8.10;99.90
21393;DHT22;10857;52.228;21.026;2024-02-21T15:22:15;8.10;99.90
21393;DHT22;10857;52.228;21.026;2024-02-21T15:24:44;8.10;99.90
21393;DHT22;10857;52.228;21.026;2024-02-21T15:27:15;8.10;99.90
21393;DHT22;10857;52.228;21.026;2024-02-21T15:29:42;8.10;99.90
21393;DHT22;10857;52.228;21.026;2024-02-21T15:32:09;8.10;99.90
21393;DHT22;10857;52.228;21.026;2024-02-21T15:34:37;8.00;99.90
21393;DHT22;10857;52.228;21.026;2024-02-21T15:37:04;8.00;99.90
21393;DHT22;10857;52.228;21.026;2024-02-21T15:39:32;8.10;99.90
21393;DHT22;10857;52.228;21.026;2024-02-21T15:41:59;8.00;99.90